Time;durP1;ratioP1;P1;durP2;ratioP2;P2;SDS_P1;SDS_P2;PMS_P1;PMS_P2;Temp;Humidity;BMP_temperature;BMP_pressure;BME280_temperature;BME280_humidity;BME280_pressure;Samples;Min_cycle;Max_cycle;Signal;HPM_P1;HPM_P2
2021/01/10 00:02:20;;;;;;;19.33;13.82;;;3.40;99.90;;;;;;5074218;28;20231;-78
2021/01/10 00:04:47;;;;;;;17.73;13.45;;;3.40;99.90;;;;;;5061149;28;20228;-75
2021/01/10 00:07:14;;;;;;;19.92;16.10;;;3.40;99.90;;;;;;5062859;28;20207;-77
2021/01/10 00:09:41;;;;;;;20.38;16.20;;;3.40;99.90;;;;;;5069226;28;20682;-77
2021/01/10 00:12:08;;;;;;;17.45;12.85;;;3.40;99.90;;;;;;5063484;28;20215;-75
2021/01/10 00:14:34;;;;;;;23.33;13.77;;;3.40;99.90;;;;;;5060171;28;20203;-75
2021/01/10 00:17:01;;;;;;;22.65;15.50;;;3.40;99.90;;;;;;5069115;28;20721;-77
2021/01/10 00:19:27;;;;;;;23.55;16.50;;;3.40;99.90;;;;;;5063114;28;20235;-77
2021/01/10 00:21:53;;;;;;;24.50;14.90;;;3.40;99.90;;;;;;5064382;28;20211;-76
2021/01/10 00:24:19;;;;;;;20.60;14.73;;;3.40;99.90;;;;;;5066565;28;20195;-76
2021/01/10 00:26:47;;;;;;;21.60;14.98;;;3.40;99.90;;;;;;5064881;28;20203;-78
2021/01/10 00:29:13;;;;;;;26.67;15.48;;;3.40;99.90;;;;;;5064064;28;20207;-76
2021/01/10 00:31:40;;;;;;;19.73;14.60;;;3.40;99.90;;;;;;5066233;28;20194;-75
2021/01/10 00:34:06;;;;;;;21.27;15.90;;;3.40;99.90;;;;;;5061890;28;20193;-78
2021/01/10 00:36:34;;;;;;;22.63;17.23;;;3.40;99.90;;;;;;5061796;28;20216;-77
2021/01/10 00:39:00;;;;;;;25.25;15.00;;;3.40;99.90;;;;;;5068168;28;20231;-78
2021/01/10 00:41:27;;;;;;;21.33;15.75;;;3.40;99.90;;;;;;5069943;28;20221;-76
2021/01/10 00:43:54;;;;;;;23.52;15.25;;;3.40;99.90;;;;;;5061085;28;20215;-77
2021/01/10 00:46:20;;;;;;;25.20;18.42;;;3.40;99.90;;;;;;5062808;28;20579;-76
2021/01/10 00:48:47;;;;;;;26.38;15.00;;;3.40;99.90;;;;;;5064673;28;20233;-76
2021/01/10 00:51:13;;;;;;;23.45;15.57;;;3.40;99.90;;;;;;5063131;28;20203;-77
2021/01/10 00:53:41;;;;;;;24.88;17.52;;;3.40;99.90;;;;;;5062509;28;20368;-76
2021/01/10 00:56:08;;;;;;;20.95;15.68;;;3.40;99.90;;;;;;5068178;28;20226;-76
2021/01/10 00:58:35;;;;;;;21.88;15.00;;;3.40;99.90;;;;;;5066190;28;20190;-77
2021/01/10 01:01:03;;;;;;;22.85;16.60;;;3.40;99.90;;;;;;5063523;28;20681;-75
2021/01/10 01:03:30;;;;;;;23.50;15.80;;;3.40;99.90;;;;;;5064263;28;20220;-75
2021/01/10 01:05:56;;;;;;;26.23;17.42;;;3.40;99.90;;;;;;5059808;28;20187;-77
2021/01/10 01:08:22;;;;;;;23.98;16.00;;;3.40;99.90;;;;;;5068005;28;20655;-75
2021/01/10 01:10:49;;;;;;;29.60;16.90;;;3.40;99.90;;;;;;5062955;28;20525;-75
2021/01/10 01:13:16;;;;;;;22.08;16.48;;;3.40;99.90;;;;;;5062211;28;20222;-77
2021/01/10 01:15:42;;;;;;;26.15;15.85;;;3.40;99.90;;;;;;5064776;28;20182;-77
2021/01/10 01:18:10;;;;;;;33.90;15.95;;;3.40;99.90;;;;;;5064001;28;20243;-76
2021/01/10 01:20:37;;;;;;;33.10;16.05;;;3.40;99.90;;;;;;5064698;28;20215;-75
2021/01/10 01:23:03;;;;;;;21.08;15.45;;;3.30;99.90;;;;;;5063821;28;20211;-77
2021/01/10 01:25:29;;;;;;;17.17;13.95;;;3.30;99.90;;;;;;5064291;28;20202;-76
2021/01/10 01:27:56;;;;;;;28.67;16.85;;;3.30;99.90;;;;;;5061849;28;20199;-76
2021/01/10 01:30:23;;;;;;;24.75;17.35;;;3.30;99.90;;;;;;5062998;28;20204;-77
2021/01/10 01:32:49;;;;;;;25.20;17.00;;;3.30;99.90;;;;;;5058062;28;20516;-76
2021/01/10 01:35:16;;;;;;;30.25;17.40;;;3.30;99.90;;;;;;5070290;28;20593;-76
2021/01/10 01:37:42;;;;;;;25.27;17.55;;;3.30;99.90;;;;;;5070254;28;20293;-76
2021/01/10 01:40:09;;;;;;;27.85;17.58;;;3.30;99.90;;;;;;5062913;28;20198;-76
2021/01/10 01:42:36;;;;;;;26.80;18.00;;;3.30;99.90;;;;;;5061987;28;20254;-76
2021/01/10 01:45:04;;;;;;;23.85;17.58;;;3.30;99.90;;;;;;5068141;28;20207;-76
2021/01/10 01:47:31;;;;;;;29.10;17.20;;;3.30;99.90;;;;;;5065585;28;20705;-77
2021/01/10 01:49:58;;;;;;;22.60;16.73;;;3.30;99.90;;;;;;5071779;28;20216;-76
2021/01/10 01:52:25;;;;;;;22.58;17.35;;;3.30;99.90;;;;;;5066878;28;20478;-76
2021/01/10 01:54:53;;;;;;;31.23;17.65;;;3.30;99.90;;;;;;5057308;28;20191;-76
2021/01/10 01:57:20;;;;;;;29.00;17.10;;;3.30;99.90;;;;;;5057596;28;20362;-76
2021/01/10 01:59:46;;;;;;;26.63;16.80;;;3.30;99.90;;;;;;5047051;28;20185;-76
2021/01/10 02:02:13;;;;;;;23.05;15.68;;;3.30;99.90;;;;;;5058270;28;20201;-77
2021/01/10 02:04:47;;;;;;;24.80;15.30;;;3.30;99.90;;;;;;5056120;28;20197;-77
2021/01/10 02:07:19;;;;;;;23.88;15.85;;;3.30;99.90;;;;;;5058363;28;20580;-76
2021/01/10 02:09:50;;;;;;;28.85;16.63;;;3.30;99.90;;;;;;5058325;28;20192;-75
2021/01/10 02:12:19;;;;;;;21.88;15.65;;;3.30;99.90;;;;;;5060447;28;20710;-78
2021/01/10 02:14:50;;;;;;;22.83;15.85;;;3.30;99.90;;;;;;5060185;28;20564;-76
2021/01/10 02:17:17;;;;;;;22.02;15.35;;;3.30;99.90;;;;;;5062367;28;20287;-76
2021/01/10 02:19:49;;;;;;;24.33;16.70;;;3.30;99.90;;;;;;5057141;28;20244;-76
2021/01/10 02:22:18;;;;;;;22.15;17.20;;;3.30;99.90;;;;;;5062788;28;20210;-77
2021/01/10 02:24:48;;;;;;;27.08;17.60;;;3.30;99.90;;;;;;5057431;28;20201;-77
2021/01/10 02:27:15;;;;;;;25.23;18.02;;;3.30;99.90;;;;;;5057068;28;20211;-77
2021/01/10 02:29:42;;;;;;;28.05;17.13;;;3.30;99.90;;;;;;5058317;28;20195;-76
2021/01/10 02:32:10;;;;;;;25.02;19.00;;;3.30;99.90;;;;;;5060541;28;20231;-75
2021/01/10 02:34:37;;;;;;;29.15;20.02;;;3.30;99.90;;;;;;5062615;28;20195;-78
2021/01/10 02:37:16;;;;;;;28.98;19.90;;;3.30;99.90;;;;;;5071027;28;20249;-76
2021/01/10 02:39:59;;;;;;;34.38;21.23;;;3.30;99.90;;;;;;5072710;28;20187;-76
2021/01/10 02:42:32;;;;;;;31.55;20.38;;;3.30;99.90;;;;;;5061807;28;20199;-76
2021/01/10 02:45:05;;;;;;;30.17;23.20;;;3.30;99.90;;;;;;5057501;28;20189;-76
2021/01/10 02:47:31;;;;;;;32.42;23.95;;;3.30;99.90;;;;;;5065863;28;20230;-76
2021/01/10 02:49:58;;;;;;;35.20;25.40;;;3.30;99.90;;;;;;5064779;28;20195;-75
2021/01/10 02:52:25;;;;;;;38.33;22.63;;;3.30;99.90;;;;;;5068460;28;20768;-76
2021/01/10 02:54:52;;;;;;;33.47;22.30;;;3.30;99.90;;;;;;5068254;28;20965;-77
2021/01/10 02:57:24;;;;;;;35.03;24.75;;;3.30;99.90;;;;;;5066325;28;20626;-76
2021/01/10 02:59:52;;;;;;;37.88;27.10;;;3.30;99.90;;;;;;5059409;28;20199;-76
2021/01/10 03:02:20;;;;;;;40.05;25.75;;;3.30;99.90;;;;;;5063605;28;20231;-78
2021/01/10 03:04:47;;;;;;;36.72;29.45;;;3.30;99.90;;;;;;5059687;28;20211;-77
2021/01/10 03:07:14;;;;;;;43.88;28.65;;;3.30;99.90;;;;;;5065384;28;20686;-77
2021/01/10 03:09:41;;;;;;;35.88;26.20;;;3.30;99.90;;;;;;5059660;28;20193;-77
2021/01/10 03:12:24;;;;;;;39.67;27.77;;;3.30;99.90;;;;;;5058587;28;20520;-76
2021/01/10 03:14:51;;;;;;;33.67;24.55;;;3.20;99.90;;;;;;5057971;28;20196;-79
2021/01/10 03:17:23;;;;;;;36.58;26.00;;;3.20;99.90;;;;;;5058893;28;20724;-77
2021/01/10 03:19:49;;;;;;;38.13;26.17;;;3.10;99.90;;;;;;5061937;28;20854;-76
2021/01/10 03:22:16;;;;;;;38.75;25.50;;;3.10;99.90;;;;;;5072175;28;20195;-76
2021/01/10 03:24:42;;;;;;;42.17;26.45;;;3.10;99.90;;;;;;5067671;28;20203;-77
2021/01/10 03:27:09;;;;;;;30.70;24.52;;;3.00;99.90;;;;;;5060548;28;20200;-77
2021/01/10 03:29:36;;;;;;;34.50;24.58;;;3.00;99.90;;;;;;5063779;28;20604;-76
2021/01/10 03:32:03;;;;;;;39.20;24.95;;;3.00;99.90;;;;;;5065014;28;20220;-76
2021/01/10 03:34:30;;;;;;;35.85;24.17;;;3.00;99.90;;;;;;5065593;28;20419;-78
2021/01/10 03:36:56;;;;;;;41.10;25.85;;;2.90;99.90;;;;;;5055840;28;20196;-76
2021/01/10 03:39:23;;;;;;;37.92;22.85;;;2.90;99.90;;;;;;5064237;28;20196;-76
2021/01/10 03:41:49;;;;;;;42.33;25.30;;;2.90;99.90;;;;;;5055920;28;20200;-77
2021/01/10 03:44:15;;;;;;;41.97;25.20;;;2.90;99.90;;;;;;5063192;28;20509;-79
2021/01/10 03:46:43;;;;;;;36.40;23.88;;;2.80;99.90;;;;;;5059839;28;20459;-77
2021/01/10 03:49:09;;;;;;;35.45;22.60;;;2.80;99.90;;;;;;5056197;28;20207;-78
2021/01/10 03:51:35;;;;;;;30.70;20.60;;;2.80;99.90;;;;;;5064947;28;20198;-76
2021/01/10 03:54:02;;;;;;;32.22;21.92;;;2.80;99.90;;;;;;5064165;28;20632;-76
2021/01/10 03:56:28;;;;;;;30.75;19.88;;;2.80;99.90;;;;;;5063304;28;20206;-76
2021/01/10 03:58:55;;;;;;;28.65;19.58;;;2.80;99.90;;;;;;5063891;28;20189;-76
2021/01/10 04:01:22;;;;;;;28.70;18.92;;;2.80;99.90;;;;;;5064434;28;20227;-76
2021/01/10 04:03:49;;;;;;;30.38;20.00;;;2.80;99.90;;;;;;5058702;28;20216;-76
2021/01/10 04:06:15;;;;;;;34.17;22.77;;;2.80;99.90;;;;;;5066628;28;20224;-77
2021/01/10 04:08:42;;;;;;;35.10;20.27;;;2.80;99.90;;;;;;5067108;28;20738;-77
2021/01/10 04:11:09;;;;;;;31.10;20.00;;;2.80;99.90;;;;;;5061805;28;20196;-77
2021/01/10 04:13:35;;;;;;;31.80;19.95;;;2.80;99.90;;;;;;5065582;28;20556;-76
2021/01/10 04:16:02;;;;;;;32.97;22.48;;;2.80;99.90;;;;;;5058761;28;20184;-77
2021/01/10 04:18:28;;;;;;;34.08;20.98;;;2.80;99.90;;;;;;5067772;28;20201;-76
2021/01/10 04:20:56;;;;;;;31.50;18.85;;;2.70;99.90;;;;;;5061348;28;20203;-77
2021/01/10 04:23:22;;;;;;;29.63;19.25;;;2.70;99.90;;;;;;5058747;28;20341;-76
2021/01/10 04:25:49;;;;;;;30.77;20.33;;;2.70;99.90;;;;;;5068245;28;20195;-77
2021/01/10 04:28:16;;;;;;;33.10;20.33;;;2.80;99.90;;;;;;5064053;28;20195;-77
2021/01/10 04:30:42;;;;;;;32.67;20.35;;;2.70;99.90;;;;;;5064742;28;20204;-76
2021/01/10 04:33:09;;;;;;;31.02;20.00;;;2.80;99.90;;;;;;5072755;28;20211;-76
2021/01/10 04:35:35;;;;;;;31.30;20.00;;;2.70;99.90;;;;;;5070005;28;20199;-77
2021/01/10 04:38:04;;;;;;;43.90;22.15;;;2.70;99.90;;;;;;5061494;28;20203;-78
2021/01/10 04:40:30;;;;;;;35.13;21.10;;;2.70;99.90;;;;;;5061432;28;20202;-78
2021/01/10 04:42:57;;;;;;;37.15;22.35;;;2.70;99.90;;;;;;5066506;28;20505;-77
2021/01/10 04:45:23;;;;;;;35.50;20.35;;;2.70;99.90;;;;;;5064142;28;20207;-76
2021/01/10 04:47:50;;;;;;;39.35;22.77;;;2.70;99.90;;;;;;5063602;28;20611;-78
2021/01/10 04:50:18;;;;;;;39.40;20.40;;;2.80;99.90;;;;;;5065439;28;20198;-76
2021/01/10 04:52:46;;;;;;;33.42;19.45;;;2.80;99.90;;;;;;5064031;28;20222;-78
2021/01/10 04:55:14;;;;;;;33.13;21.15;;;2.80;99.90;;;;;;5052524;28;20569;-76
2021/01/10 04:57:42;;;;;;;27.10;18.13;;;2.70;99.90;;;;;;5062077;28;20268;-76
2021/01/10 05:00:10;;;;;;;26.77;18.50;;;2.80;99.90;;;;;;5062718;28;20561;-78
2021/01/10 05:02:46;;;;;;;30.60;19.50;;;2.80;99.90;;;;;;5058878;28;20235;-77
2021/01/10 05:05:13;;;;;;;27.08;19.17;;;2.80;99.90;;;;;;5057079;28;20199;-77
2021/01/10 05:07:41;;;;;;;29.58;19.60;;;2.80;99.90;;;;;;5066495;28;20320;-76
2021/01/10 05:10:08;;;;;;;32.63;20.45;;;2.80;99.90;;;;;;5056511;28;20197;-76
2021/01/10 05:12:35;;;;;;;31.00;19.58;;;2.80;99.90;;;;;;5060083;28;20224;-77
2021/01/10 05:15:01;;;;;;;30.42;20.80;;;2.80;99.90;;;;;;5060238;28;20664;-77
2021/01/10 05:17:28;;;;;;;31.23;18.85;;;2.80;99.90;;;;;;5066378;28;20199;-76
2021/01/10 05:19:54;;;;;;;28.10;16.85;;;2.80;99.90;;;;;;5057061;28;20220;-76
2021/01/10 05:22:22;;;;;;;28.63;19.10;;;2.80;99.90;;;;;;5061592;28;20278;-77
2021/01/10 05:24:48;;;;;;;26.10;18.48;;;2.80;99.90;;;;;;5063626;28;20618;-77
2021/01/10 05:27:15;;;;;;;31.95;19.40;;;2.80;99.90;;;;;;5063513;28;20249;-76
2021/01/10 05:29:44;;;;;;;25.60;18.40;;;2.80;99.90;;;;;;5068750;28;20188;-76
2021/01/10 05:32:11;;;;;;;31.27;19.00;;;2.80;99.90;;;;;;5057949;28;20201;-76
2021/01/10 05:34:38;;;;;;;34.03;20.55;;;2.80;99.90;;;;;;5062014;28;20244;-78
2021/01/10 05:37:14;;;;;;;29.38;19.05;;;2.80;99.90;;;;;;5053116;28;20207;-76
2021/01/10 05:39:45;;;;;;;34.53;20.77;;;2.80;99.90;;;;;;5060435;28;20249;-77
2021/01/10 05:42:12;;;;;;;30.23;19.40;;;2.80;99.90;;;;;;5059876;28;20648;-76
2021/01/10 05:44:50;;;;;;;32.25;19.58;;;2.80;99.90;;;;;;5057260;28;20604;-78
2021/01/10 05:47:18;;;;;;;32.53;19.67;;;2.80;99.90;;;;;;5060681;28;20199;-76
2021/01/10 05:49:45;;;;;;;31.30;19.48;;;2.80;99.90;;;;;;5060988;28;20672;-76
2021/01/10 05:52:13;;;;;;;29.92;19.85;;;2.80;99.90;;;;;;5061878;28;20215;-79
2021/01/10 05:54:40;;;;;;;32.72;20.15;;;2.80;99.90;;;;;;5058216;28;20211;-76
2021/01/10 05:57:07;;;;;;;30.35;21.17;;;2.80;99.90;;;;;;5064684;28;20767;-77
2021/01/10 05:59:36;;;;;;;29.55;19.38;;;2.80;99.90;;;;;;5065803;28;20285;-78
2021/01/10 06:02:04;;;;;;;29.70;20.08;;;2.80;99.90;;;;;;5062045;28;20261;-77
2021/01/10 06:04:31;;;;;;;31.52;21.58;;;2.80;99.90;;;;;;5055968;28;20206;-75
2021/01/10 06:06:57;;;;;;;34.90;18.70;;;2.80;99.90;;;;;;5067692;28;20245;-76
2021/01/10 06:09:24;;;;;;;32.50;21.23;;;2.80;99.90;;;;;;5066049;28;20250;-77
2021/01/10 06:11:51;;;;;;;32.22;20.58;;;2.80;99.90;;;;;;5065708;28;20199;-76
2021/01/10 06:14:23;;;;;;;32.28;20.33;;;2.80;99.90;;;;;;5067887;28;20231;-77
2021/01/10 06:16:54;;;;;;;29.65;17.35;;;2.80;99.90;;;;;;5060377;28;20203;-77
2021/01/10 06:19:26;;;;;;;34.45;19.15;;;2.80;99.90;;;;;;5068816;28;20227;-78
2021/01/10 06:21:55;;;;;;;32.53;18.50;;;2.80;99.90;;;;;;5066448;28;20229;-77
2021/01/10 06:24:23;;;;;;;34.67;20.75;;;2.80;99.90;;;;;;5067921;28;20195;-76
2021/01/10 06:26:57;;;;;;;32.85;20.50;;;2.90;99.90;;;;;;5065368;28;20191;-77
2021/01/10 06:29:27;;;;;;;37.00;21.45;;;2.90;99.90;;;;;;5067363;28;20199;-77
2021/01/10 06:31:55;;;;;;;42.70;22.75;;;2.90;99.90;;;;;;5065280;28;20191;-77
2021/01/10 06:34:25;;;;;;;31.38;20.13;;;2.90;99.90;;;;;;5056717;28;20539;-78
2021/01/10 06:36:52;;;;;;;32.97;21.23;;;2.90;99.90;;;;;;5065173;28;20199;-76
2021/01/10 06:39:26;;;;;;;36.83;20.58;;;2.90;99.90;;;;;;5070028;28;20240;-77
2021/01/10 06:42:14;;;;;;;33.05;20.65;;;2.90;99.90;;;;;;5073790;28;20211;-77
2021/01/10 06:44:43;;;;;;;26.40;19.30;;;2.90;99.90;;;;;;5066443;28;20195;-76
2021/01/10 06:47:17;;;;;;;29.00;18.50;;;2.90;99.90;;;;;;5063957;28;20205;-77
2021/01/10 06:49:45;;;;;;;27.48;17.92;;;2.90;99.90;;;;;;5058870;28;20188;-79
2021/01/10 06:52:12;;;;;;;32.35;18.90;;;2.90;99.90;;;;;;5059489;28;20208;-78
2021/01/10 06:54:43;;;;;;;29.05;19.17;;;2.90;99.90;;;;;;5064873;28;20254;-76
2021/01/10 06:57:10;;;;;;;22.98;17.40;;;2.90;99.90;;;;;;5064405;28;20200;-77
2021/01/10 07:00:08;;;;;;;28.80;18.67;;;2.90;99.90;;;;;;5062210;28;20199;-76
2021/01/10 07:03:07;;;;;;;28.95;17.33;;;2.90;99.90;;;;;;5061077;28;20229;-77
2021/01/10 07:06:02;;;;;;;30.65;18.40;;;2.90;99.90;;;;;;5061405;28;20920;-77
2021/01/10 07:08:32;;;;;;;28.67;18.30;;;2.90;99.90;;;;;;5058750;28;20204;-77
2021/01/10 07:11:31;;;;;;;25.45;17.88;;;2.90;99.90;;;;;;5060380;28;20192;-77
2021/01/10 07:14:25;;;;;;;33.45;21.15;;;2.90;99.90;;;;;;5069102;28;20227;-77
2021/01/10 07:17:10;;;;;;;25.67;18.80;;;2.90;99.90;;;;;;5060412;28;20187;-77
2021/01/10 07:19:42;;;;;;;30.08;18.63;;;2.90;99.90;;;;;;5073623;28;20210;-76
2021/01/10 07:22:23;;;;;;;31.30;18.75;;;2.90;99.90;;;;;;5062043;28;20195;-76
2021/01/10 07:24:50;;;;;;;28.25;17.85;;;2.90;99.90;;;;;;5058063;28;20196;-76
2021/01/10 07:27:28;;;;;;;28.85;19.58;;;2.90;99.90;;;;;;5071409;28;20200;-76
2021/01/10 07:29:54;;;;;;;22.35;16.38;;;2.90;99.90;;;;;;5071618;28;20197;-76
2021/01/10 07:32:33;;;;;;;27.80;18.85;;;2.90;99.90;;;;;;5066360;28;20232;-77
2021/01/10 07:35:01;;;;;;;27.13;18.83;;;2.90;99.90;;;;;;5058954;28;20651;-76
2021/01/10 07:37:29;;;;;;;27.77;18.45;;;2.90;99.90;;;;;;5064113;28;21011;-76
2021/01/10 07:39:57;;;;;;;29.13;18.80;;;2.90;99.90;;;;;;5063599;28;20196;-76
2021/01/10 07:42:25;;;;;;;27.10;19.23;;;3.00;99.90;;;;;;5059361;28;20199;-77
2021/01/10 07:44:54;;;;;;;28.58;18.52;;;3.00;99.90;;;;;;5064637;28;20652;-76
2021/01/10 07:47:41;;;;;;;26.40;19.13;;;3.00;99.90;;;;;;5070928;28;20204;-76
2021/01/10 07:50:10;;;;;;;25.90;17.10;;;3.00;99.90;;;;;;5062893;28;20199;-76
2021/01/10 07:52:55;;;;;;;27.23;17.17;;;3.00;99.90;;;;;;5074136;28;20222;-76
2021/01/10 07:55:23;;;;;;;29.35;18.95;;;3.00;99.90;;;;;;5053560;28;20200;-75
2021/01/10 07:57:51;;;;;;;30.63;18.15;;;3.00;99.90;;;;;;5062966;28;20617;-78
2021/01/10 08:00:20;;;;;;;29.70;18.63;;;3.00;99.90;;;;;;5065483;28;20656;-76
2021/01/10 08:02:48;;;;;;;26.70;18.10;;;3.00;99.90;;;;;;5063646;28;20234;-75
2021/01/10 08:05:17;;;;;;;27.52;18.38;;;3.00;99.90;;;;;;5064225;28;20200;-76
2021/01/10 08:08:03;;;;;;;31.38;21.05;;;3.00;99.90;;;;;;5066651;28;20200;-76
2021/01/10 08:10:43;;;;;;;34.67;21.35;;;3.00;99.90;;;;;;5068464;28;20194;-77
2021/01/10 08:13:28;;;;;;;32.75;21.05;;;3.00;99.90;;;;;;5058870;28;20234;-76
2021/01/10 08:15:54;;;;;;;28.95;19.52;;;3.00;99.90;;;;;;5051399;28;20196;-78
2021/01/10 08:18:22;;;;;;;32.88;21.27;;;3.00;99.90;;;;;;5061825;28;20648;-76
2021/01/10 08:20:49;;;;;;;38.70;21.42;;;3.00;99.90;;;;;;5061457;28;20224;-76
2021/01/10 08:23:17;;;;;;;31.48;21.42;;;3.00;99.90;;;;;;5068794;28;20202;-76
2021/01/10 08:25:44;;;;;;;36.15;20.15;;;3.00;99.90;;;;;;5072086;28;20207;-76
2021/01/10 08:28:11;;;;;;;35.80;22.15;;;3.00;99.90;;;;;;5066956;28;20198;-75
2021/01/10 08:30:38;;;;;;;30.77;21.48;;;3.00;99.90;;;;;;5074974;28;20547;-78
2021/01/10 08:33:04;;;;;;;31.95;21.00;;;3.10;99.90;;;;;;5072119;28;20226;-77
2021/01/10 08:35:31;;;;;;;33.70;21.95;;;3.10;99.90;;;;;;5067251;28;20214;-76
2021/01/10 08:37:57;;;;;;;36.20;20.90;;;3.10;99.90;;;;;;5064991;28;20203;-76
2021/01/10 08:40:25;;;;;;;30.73;21.42;;;3.10;99.90;;;;;;5067385;28;20195;-75
2021/01/10 08:43:01;;;;;;;29.42;20.08;;;3.10;99.90;;;;;;5060769;28;20192;-77
2021/01/10 08:45:29;;;;;;;33.17;22.65;;;3.10;99.90;;;;;;5060826;28;20283;-75
2021/01/10 08:47:55;;;;;;;31.15;20.52;;;3.10;99.90;;;;;;5067229;28;20203;-77
2021/01/10 08:50:22;;;;;;;39.08;20.50;;;3.20;99.90;;;;;;5076209;28;20200;-76
2021/01/10 08:52:56;;;;;;;34.70;22.98;;;3.20;99.90;;;;;;5072125;28;20631;-76
2021/01/10 08:55:36;;;;;;;30.52;21.33;;;3.20;99.90;;;;;;5055049;28;20186;-76
2021/01/10 08:58:05;;;;;;;28.52;22.08;;;3.20;99.90;;;;;;5061081;28;20200;-76
2021/01/10 09:00:32;;;;;;;35.50;22.95;;;3.20;99.90;;;;;;5057893;28;20199;-76
2021/01/10 09:03:15;;;;;;;38.97;24.73;;;3.20;99.90;;;;;;5061625;28;20543;-75
2021/01/10 09:05:43;;;;;;;31.67;21.38;;;3.30;99.90;;;;;;5059829;28;20659;-76
2021/01/10 09:08:22;;;;;;;35.03;23.95;;;3.20;99.90;;;;;;5063724;28;20196;-75
2021/01/10 09:10:56;;;;;;;35.33;23.52;;;3.30;99.90;;;;;;5061920;28;20188;-76
2021/01/10 09:13:24;;;;;;;28.65;20.23;;;3.30;99.90;;;;;;5060644;28;20280;-75
2021/01/10 09:15:55;;;;;;;31.88;20.23;;;3.30;99.90;;;;;;5056941;28;21044;-78
2021/01/10 09:18:23;;;;;;;34.60;21.45;;;3.30;99.90;;;;;;5059364;28;20229;-76
2021/01/10 09:20:54;;;;;;;30.30;20.30;;;3.30;99.90;;;;;;5061448;28;20225;-75
2021/01/10 09:23:20;;;;;;;30.80;21.92;;;3.30;99.90;;;;;;5060585;28;20207;-76
2021/01/10 09:25:47;;;;;;;30.98;20.17;;;3.30;99.90;;;;;;5055919;28;20199;-75
2021/01/10 09:28:17;;;;;;;29.15;20.70;;;3.40;99.90;;;;;;5059086;28;20641;-75
2021/01/10 09:30:45;;;;;;;34.90;22.50;;;3.40;99.90;;;;;;5060392;28;20255;-76
2021/01/10 09:33:12;;;;;;;31.88;22.08;;;3.40;99.90;;;;;;5061266;28;20242;-75
2021/01/10 09:35:41;;;;;;;30.42;20.02;;;3.40;99.90;;;;;;5060516;28;20195;-76
2021/01/10 09:38:11;;;;;;;35.53;21.80;;;3.50;99.90;;;;;;5060460;28;20190;-76
2021/01/10 09:40:39;;;;;;;26.90;20.20;;;3.50;99.90;;;;;;5063193;28;20195;-76
2021/01/10 09:43:05;;;;;;;28.35;20.08;;;3.50;99.90;;;;;;5061151;28;20222;-78
2021/01/10 09:45:37;;;;;;;28.90;19.35;;;3.50;99.90;;;;;;5061579;28;20206;-76
2021/01/10 09:48:04;;;;;;;28.63;21.00;;;3.50;99.90;;;;;;5063431;28;20187;-75
2021/01/10 09:50:31;;;;;;;29.63;19.48;;;3.60;99.90;;;;;;5060186;28;20666;-76
2021/01/10 09:52:58;;;;;;;28.98;19.48;;;3.60;99.90;;;;;;5059589;28;20227;-76
2021/01/10 09:55:25;;;;;;;29.83;19.67;;;3.60;99.90;;;;;;5067590;28;20198;-75
2021/01/10 09:57:53;;;;;;;27.50;21.10;;;3.70;99.90;;;;;;5065939;28;20550;-76
2021/01/10 10:00:21;;;;;;;23.58;18.27;;;3.70;99.90;;;;;;5065025;28;20205;-77
2021/01/10 10:02:49;;;;;;;30.08;21.23;;;3.70;99.90;;;;;;5064394;28;20231;-75
2021/01/10 10:05:17;;;;;;;32.40;21.58;;;3.80;99.90;;;;;;5066089;28;20189;-78
2021/01/10 10:07:45;;;;;;;27.08;20.90;;;3.80;99.90;;;;;;5065970;28;20240;-76
2021/01/10 10:10:25;;;;;;;31.17;20.35;;;3.90;99.90;;;;;;5059446;28;20612;-75
2021/01/10 10:12:58;;;;;;;31.35;23.10;;;3.90;99.90;;;;;;5070097;28;20219;-75
2021/01/10 10:15:35;;;;;;;35.15;24.75;;;3.90;99.90;;;;;;5069266;28;20195;-77
2021/01/10 10:18:03;;;;;;;29.67;22.60;;;3.90;99.90;;;;;;5057697;28;20203;-76
2021/01/10 10:20:30;;;;;;;28.95;21.50;;;3.90;99.90;;;;;;5063647;28;20383;-76
2021/01/10 10:23:07;;;;;;;34.47;23.52;;;3.90;99.90;;;;;;5062784;28;20240;-77
2021/01/10 10:25:34;;;;;;;31.58;21.85;;;4.00;99.90;;;;;;5067826;28;20188;-75
2021/01/10 10:28:01;;;;;;;30.88;19.23;;;4.00;99.90;;;;;;5057461;28;20189;-77
2021/01/10 10:30:28;;;;;;;37.60;21.70;;;4.00;99.90;;;;;;5069171;28;20223;-76
2021/01/10 10:32:55;;;;;;;41.30;27.13;;;4.00;99.90;;;;;;5068544;28;20596;-77
2021/01/10 10:35:23;;;;;;;37.15;22.13;;;4.10;99.90;;;;;;5062957;28;20184;-76
2021/01/10 10:37:50;;;;;;;35.35;21.13;;;4.10;99.90;;;;;;5063631;28;20374;-75
2021/01/10 10:40:16;;;;;;;29.25;21.00;;;4.10;99.90;;;;;;5061536;28;20192;-76
2021/01/10 10:42:43;;;;;;;30.77;20.55;;;4.10;99.90;;;;;;5064654;28;20187;-76
2021/01/10 10:45:10;;;;;;;46.17;30.40;;;4.20;99.90;;;;;;5064383;28;20197;-76
2021/01/10 10:47:37;;;;;;;34.08;24.40;;;4.20;99.90;;;;;;5063321;28;20217;-76
2021/01/10 10:50:04;;;;;;;32.75;20.40;;;4.20;99.90;;;;;;5060399;28;20193;-78
2021/01/10 10:52:31;;;;;;;26.00;20.20;;;4.20;99.90;;;;;;5062430;28;20204;-76
2021/01/10 10:54:57;;;;;;;29.33;20.90;;;4.20;99.90;;;;;;5066117;28;20188;-78
2021/01/10 10:57:24;;;;;;;25.70;18.60;;;4.30;99.90;;;;;;5066790;28;20207;-76
2021/01/10 10:59:50;;;;;;;30.73;21.63;;;4.30;99.90;;;;;;5057611;28;20226;-78
2021/01/10 11:02:17;;;;;;;26.77;18.83;;;4.30;99.90;;;;;;5063461;28;20693;-77
2021/01/10 11:04:45;;;;;;;31.75;20.70;;;4.30;99.90;;;;;;5064921;28;20467;-78
2021/01/10 11:07:12;;;;;;;30.08;20.42;;;4.30;99.90;;;;;;5062869;28;20199;-76
2021/01/10 11:09:39;;;;;;;32.35;21.30;;;4.40;99.90;;;;;;5067563;28;20184;-75
2021/01/10 11:12:09;;;;;;;29.42;19.85;;;4.40;99.90;;;;;;5058828;28;20834;-76
2021/01/10 11:14:35;;;;;;;27.77;20.10;;;4.40;99.90;;;;;;5058613;28;20229;-77
2021/01/10 11:17:04;;;;;;;40.78;27.17;;;4.40;99.90;;;;;;5064471;28;20194;-76
2021/01/10 11:19:30;;;;;;;42.50;27.20;;;4.50;99.90;;;;;;5057867;28;20635;-75
2021/01/10 11:21:57;;;;;;;35.63;24.15;;;4.50;99.90;;;;;;5067570;28;20197;-76
2021/01/10 11:24:23;;;;;;;40.70;27.60;;;4.50;99.90;;;;;;5065192;28;20231;-76
2021/01/10 11:26:50;;;;;;;32.28;25.35;;;4.60;99.90;;;;;;5062968;28;20193;-76
2021/01/10 11:29:17;;;;;;;35.75;24.42;;;4.60;99.90;;;;;;5063830;28;20192;-77
2021/01/10 11:31:43;;;;;;;32.65;23.00;;;4.60;99.90;;;;;;5066324;28;20189;-76
2021/01/10 11:34:12;;;;;;;37.08;21.88;;;4.60;99.90;;;;;;5061692;28;20558;-75
2021/01/10 11:36:42;;;;;;;26.90;19.70;;;4.70;99.90;;;;;;5062330;28;20773;-78
2021/01/10 11:39:08;;;;;;;31.48;23.00;;;4.60;99.90;;;;;;5062235;28;20257;-75
2021/01/10 11:41:34;;;;;;;35.42;24.70;;;4.70;99.90;;;;;;5061408;28;20265;-76
2021/01/10 11:44:02;;;;;;;29.92;22.60;;;4.70;99.90;;;;;;5064144;28;20276;-77
2021/01/10 11:46:28;;;;;;;37.45;22.02;;;4.70;99.90;;;;;;5062431;28;20197;-75
2021/01/10 11:48:55;;;;;;;33.80;25.13;;;4.70;99.90;;;;;;5056531;28;20205;-76
2021/01/10 11:51:22;;;;;;;37.72;25.08;;;4.70;99.90;;;;;;5058260;28;20900;-75
2021/01/10 11:53:48;;;;;;;41.03;23.65;;;4.70;99.90;;;;;;5059957;28;20238;-76
2021/01/10 11:56:14;;;;;;;37.58;22.70;;;4.80;99.90;;;;;;5058446;28;20201;-75
2021/01/10 11:58:41;;;;;;;27.88;21.77;;;4.80;99.90;;;;;;5062040;28;20783;-76
2021/01/10 12:01:09;;;;;;;36.08;22.38;;;4.80;99.90;;;;;;5058438;28;20215;-77
2021/01/10 12:03:36;;;;;;;32.05;21.92;;;4.90;99.90;;;;;;5061343;28;20241;-78
2021/01/10 12:06:03;;;;;;;33.38;22.40;;;4.90;99.90;;;;;;5054005;28;20715;-77
2021/01/10 12:08:31;;;;;;;44.38;23.70;;;4.90;99.90;;;;;;5060848;28;20239;-76
2021/01/10 12:11:01;;;;;;;30.27;22.30;;;4.90;99.90;;;;;;5056699;28;20246;-75
2021/01/10 12:13:30;;;;;;;33.95;22.58;;;4.90;99.90;;;;;;5055328;28;20312;-76
2021/01/10 12:15:58;;;;;;;36.85;21.33;;;5.00;99.90;;;;;;5065555;28;20284;-75
2021/01/10 12:18:25;;;;;;;30.60;21.20;;;5.00;99.90;;;;;;5059872;28;20279;-75
2021/01/10 12:20:51;;;;;;;34.03;23.50;;;5.00;99.90;;;;;;5057635;28;20584;-74
2021/01/10 12:23:17;;;;;;;35.03;21.70;;;5.00;99.90;;;;;;5054048;28;20193;-75
2021/01/10 12:25:44;;;;;;;31.85;23.15;;;5.00;99.90;;;;;;5058126;28;20200;-76
2021/01/10 12:28:12;;;;;;;33.08;23.75;;;5.00;99.90;;;;;;5060354;28;20193;-75
2021/01/10 12:30:38;;;;;;;38.20;23.63;;;5.00;99.90;;;;;;5060996;28;20202;-76
2021/01/10 12:33:05;;;;;;;38.88;24.63;;;5.00;99.90;;;;;;5056408;28;20680;-76
2021/01/10 12:35:32;;;;;;;32.22;22.20;;;5.00;99.90;;;;;;5062932;28;20603;-75
2021/01/10 12:37:58;;;;;;;32.63;22.80;;;5.00;99.90;;;;;;5062798;28;20201;-77
2021/01/10 12:40:25;;;;;;;27.73;20.88;;;5.00;99.90;;;;;;5063705;28;20217;-75
2021/01/10 12:42:51;;;;;;;31.63;23.33;;;5.00;99.90;;;;;;5060889;28;20254;-74
2021/01/10 12:45:18;;;;;;;30.98;22.85;;;5.10;99.90;;;;;;5066644;28;20199;-76